MSR670 OEJN-HECA
Flight info
| Callsign | MSR670 |
|---|---|
| Flight time | N/A |
| Altitude | 32000 |
| Route | MIGDA L677 CVO |
| Aircraft | B738/M-SDE2E3FGHIRWXY/LB1 |
Departure
| Time | 2026-04-28 22:42 |
|---|---|
| Airport | King Abdulaziz International Airport (OEJN) |
Arrival
| Time | N/A |
|---|---|
| Airport | Cairo International Airport (HECA) |
| Time | Latitude | Longitude | Altitude | Speed | Heading |
|---|---|---|---|---|---|
| 2026-04-28 22:15 | 21.66649 | 39.17050 | 29 ft | 0 kts | 69° |
| 2026-04-28 22:30 | 21.66650 | 39.17054 | 29 ft | 3 kts | 88° |
| 2026-04-28 22:31 | 21.66651 | 39.17040 | 29 ft | 3 kts | 99° |
| 2026-04-28 22:31 | 21.66654 | 39.17018 | 29 ft | 3 kts | 94° |
| 2026-04-28 22:31 | 21.66655 | 39.16995 | 29 ft | 3 kts | 90° |
| 2026-04-28 22:31 | 21.66655 | 39.16973 | 29 ft | 3 kts | 90° |
| 2026-04-28 22:32 | 21.66656 | 39.16950 | 29 ft | 3 kts | 101° |
| 2026-04-28 22:32 | 21.66662 | 39.16932 | 29 ft | 3 kts | 146° |
| 2026-04-28 22:32 | 21.66670 | 39.16928 | 29 ft | 1 kts | 160° |
| 2026-04-28 22:35 | 21.66667 | 39.16929 | 29 ft | 2 kts | 160° |
| 2026-04-28 22:36 | 21.66640 | 39.16939 | 29 ft | 5 kts | 160° |
| 2026-04-28 22:36 | 21.66609 | 39.16951 | 29 ft | 5 kts | 160° |
| 2026-04-28 22:36 | 21.66570 | 39.16966 | 29 ft | 8 kts | 160° |
| 2026-04-28 22:36 | 21.66504 | 39.16991 | 29 ft | 12 kts | 160° |
| 2026-04-28 22:37 | 21.66421 | 39.17019 | 30 ft | 13 kts | 174° |
| 2026-04-28 22:37 | 21.66336 | 39.17004 | 30 ft | 12 kts | 201° |
| 2026-04-28 22:37 | 21.66287 | 39.16933 | 30 ft | 12 kts | 250° |
| 2026-04-28 22:37 | 21.66259 | 39.16849 | 30 ft | 12 kts | 250° |
| 2026-04-28 22:38 | 21.66238 | 39.16790 | 30 ft | 7 kts | 249° |
| 2026-04-28 22:38 | 21.66230 | 39.16767 | 30 ft | 0 kts | 249° |
| 2026-04-28 22:38 | 21.66229 | 39.16762 | 30 ft | 4 kts | 249° |
| 2026-04-28 22:39 | 21.66218 | 39.16733 | 29 ft | 4 kts | 249° |
| 2026-04-28 22:39 | 21.66204 | 39.16693 | 30 ft | 7 kts | 249° |
| 2026-04-28 22:39 | 21.66187 | 39.16644 | 29 ft | 6 kts | 249° |
| 2026-04-28 22:39 | 21.66185 | 39.16639 | 29 ft | 0 kts | 249° |
| 2026-04-28 22:40 | 21.66183 | 39.16633 | 30 ft | 4 kts | 250° |
| 2026-04-28 22:40 | 21.66171 | 39.16597 | 30 ft | 6 kts | 250° |
| 2026-04-28 22:41 | 21.66158 | 39.16558 | 30 ft | 5 kts | 250° |
| 2026-04-28 22:41 | 21.66145 | 39.16520 | 30 ft | 6 kts | 250° |
| 2026-04-28 22:41 | 21.66156 | 39.16478 | 29 ft | 7 kts | 320° |
| 2026-04-28 22:41 | 21.66188 | 39.16464 | 29 ft | 3 kts | 340° |
| 2026-04-28 22:42 | 21.66270 | 39.16432 | 30 ft | 38 kts | 340° |
| 2026-04-28 22:42 | 21.66747 | 39.16244 | 39 ft | 106 kts | 340° |
| 2026-04-28 22:42 | 21.67630 | 39.15900 | 41 ft | 162 kts | 341° |
| 2026-04-28 22:42 | 21.68740 | 39.15493 | 670 ft | 166 kts | 342° |
| 2026-04-28 22:43 | 21.69813 | 39.15084 | 1588 ft | 161 kts | 341° |
| 2026-04-28 22:43 | 21.70892 | 39.14627 | 2132 ft | 177 kts | 340° |
| 2026-04-28 22:43 | 21.72140 | 39.14122 | 2379 ft | 204 kts | 339° |
| 2026-04-28 22:43 | 21.73546 | 39.13563 | 2638 ft | 224 kts | 339° |
| 2026-04-28 22:44 | 21.75052 | 39.12964 | 3003 ft | 242 kts | 338° |
| 2026-04-28 22:44 | 21.76678 | 39.12316 | 3479 ft | 256 kts | 336° |
| 2026-04-28 22:44 | 21.78780 | 39.11340 | 4444 ft | 259 kts | 333° |
| 2026-04-28 22:45 | 21.80457 | 39.10542 | 5106 ft | 269 kts | 333° |
| 2026-04-28 22:45 | 21.82169 | 39.09729 | 5762 ft | 276 kts | 333° |
| 2026-04-28 22:45 | 21.83971 | 39.08878 | 6431 ft | 283 kts | 333° |
| 2026-04-28 22:45 | 21.85761 | 39.08038 | 7157 ft | 285 kts | 333° |
| 2026-04-28 22:46 | 21.87586 | 39.07186 | 7941 ft | 286 kts | 333° |
| 2026-04-28 22:46 | 21.89421 | 39.06331 | 8653 ft | 290 kts | 333° |
| 2026-04-28 22:46 | 21.91289 | 39.05460 | 9379 ft | 294 kts | 333° |
| 2026-04-28 22:46 | 21.93170 | 39.04586 | 10127 ft | 295 kts | 333° |
| 2026-04-28 22:47 | 21.95093 | 39.03690 | 10532 ft | 311 kts | 333° |
| 2026-04-28 22:47 | 21.97157 | 39.02726 | 10687 ft | 334 kts | 333° |
| 2026-04-28 22:47 | 21.99355 | 39.01700 | 10846 ft | 354 kts | 333° |
| 2026-04-28 22:47 | 22.01683 | 39.00616 | 10981 ft | 373 kts | 333° |
| 2026-04-28 22:48 | 22.04115 | 38.99485 | 11165 ft | 389 kts | 333° |
| 2026-04-28 22:48 | 22.06631 | 38.98318 | 11515 ft | 397 kts | 333° |
| 2026-04-28 22:48 | 22.09184 | 38.97135 | 12004 ft | 401 kts | 333° |
| 2026-04-28 22:48 | 22.11757 | 38.95943 | 12550 ft | 403 kts | 333° |
| 2026-04-28 22:49 | 22.14342 | 38.94743 | 13060 ft | 406 kts | 333° |
| 2026-04-28 22:49 | 22.16944 | 38.93533 | 13541 ft | 409 kts | 333° |
| 2026-04-28 22:49 | 22.19569 | 38.92312 | 13981 ft | 412 kts | 333° |
| 2026-04-28 22:49 | 22.22206 | 38.91084 | 14434 ft | 414 kts | 333° |
| 2026-04-28 22:50 | 22.24855 | 38.89850 | 14907 ft | 415 kts | 333° |
| 2026-04-28 22:50 | 22.27516 | 38.88609 | 15353 ft | 418 kts | 333° |